sensor_id;sensor_type;location;lat;lon;timestamp;temperature;humidity
52621;DHT22;38515;53.160;6.990;2022-07-12T00:01:57;15.90;99.90
52621;DHT22;38515;53.160;6.990;2022-07-12T00:04:23;15.90;99.90
52621;DHT22;38515;53.160;6.990;2022-07-12T00:06:48;15.90;99.90
52621;DHT22;38515;53.160;6.990;2022-07-12T00:09:15;15.90;99.90
52621;DHT22;38515;53.160;6.990;2022-07-12T00:11:41;15.90;99.90
52621;DHT22;38515;53.160;6.990;2022-07-12T00:14:07;15.90;99.90
52621;DHT22;38515;53.160;6.990;2022-07-12T00:16:35;15.20;99.90
52621;DHT22;38515;53.160;6.990;2022-07-12T00:19:01;15.90;99.90
52621;DHT22;38515;53.160;6.990;2022-07-12T00:21:27;15.80;99.90
52621;DHT22;38515;53.160;6.990;2022-07-12T00:23:53;15.90;99.90
52621;DHT22;38515;53.160;6.990;2022-07-12T00:26:19;15.90;99.90
52621;DHT22;38515;53.160;6.990;2022-07-12T00:28:45;15.90;99.90
52621;DHT22;38515;53.160;6.990;2022-07-12T00:31:11;15.90;99.90
52621;DHT22;38515;53.160;6.990;2022-07-12T00:33:37;15.90;99.90
52621;DHT22;38515;53.160;6.990;2022-07-12T00:36:03;15.80;99.90
52621;DHT22;38515;53.160;6.990;2022-07-12T00:38:29;15.80;99.90
52621;DHT22;38515;53.160;6.990;2022-07-12T00:40:54;15.80;99.90
52621;DHT22;38515;53.160;6.990;2022-07-12T00:43:20;15.80;99.90
52621;DHT22;38515;53.160;6.990;2022-07-12T00:45:46;15.80;99.90
52621;DHT22;38515;53.160;6.990;2022-07-12T00:48:12;15.80;99.90
52621;DHT22;38515;53.160;6.990;2022-07-12T00:50:39;15.80;99.90
52621;DHT22;38515;53.160;6.990;2022-07-12T00:53:05;15.80;99.90
52621;DHT22;38515;53.160;6.990;2022-07-12T00:55:31;15.80;99.90
52621;DHT22;38515;53.160;6.990;2022-07-12T00:57:57;15.80;99.90
52621;DHT22;38515;53.160;6.990;2022-07-12T01:00:26;15.80;99.90
52621;DHT22;38515;53.160;6.990;2022-07-12T01:02:54;15.80;99.90
52621;DHT22;38515;53.160;6.990;2022-07-12T01:05:20;15.70;99.90
52621;DHT22;38515;53.160;6.990;2022-07-12T01:07:46;15.80;99.90
52621;DHT22;38515;53.160;6.990;2022-07-12T01:10:12;15.70;99.90
52621;DHT22;38515;53.160;6.990;2022-07-12T01:12:38;15.80;99.90
52621;DHT22;38515;53.160;6.990;2022-07-12T01:15:06;15.70;99.90
52621;DHT22;38515;53.160;6.990;2022-07-12T01:17:32;15.70;99.90
52621;DHT22;38515;53.160;6.990;2022-07-12T01:19:58;15.60;99.90
52621;DHT22;38515;53.160;6.990;2022-07-12T01:22:29;15.60;99.90
52621;DHT22;38515;53.160;6.990;2022-07-12T01:24:55;15.60;99.90
52621;DHT22;38515;53.160;6.990;2022-07-12T01:27:21;15.60;99.90
52621;DHT22;38515;53.160;6.990;2022-07-12T01:29:47;15.60;99.90
52621;DHT22;38515;53.160;6.990;2022-07-12T01:32:13;15.50;99.90
52621;DHT22;38515;53.160;6.990;2022-07-12T01:37:21;15.50;99.90
52621;DHT22;38515;53.160;6.990;2022-07-12T01:39:50;15.50;99.90
52621;DHT22;38515;53.160;6.990;2022-07-12T01:42:16;15.40;99.90
52621;DHT22;38515;53.160;6.990;2022-07-12T01:44:42;15.40;99.90
52621;DHT22;38515;53.160;6.990;2022-07-12T01:47:08;15.40;99.90
52621;DHT22;38515;53.160;6.990;2022-07-12T01:49:34;15.40;99.90
52621;DHT22;38515;53.160;6.990;2022-07-12T01:52:00;15.40;99.90
52621;DHT22;38515;53.160;6.990;2022-07-12T01:54:26;15.40;99.90
52621;DHT22;38515;53.160;6.990;2022-07-12T01:56:52;15.40;99.90
52621;DHT22;38515;53.160;6.990;2022-07-12T01:59:20;15.40;99.90
52621;DHT22;38515;53.160;6.990;2022-07-12T02:01:46;15.40;99.90
52621;DHT22;38515;53.160;6.990;2022-07-12T02:04:15;15.40;99.90
52621;DHT22;38515;53.160;6.990;2022-07-12T02:06:41;15.40;99.90
52621;DHT22;38515;53.160;6.990;2022-07-12T02:09:08;15.40;99.90
52621;DHT22;38515;53.160;6.990;2022-07-12T02:11:34;15.40;99.90
52621;DHT22;38515;53.160;6.990;2022-07-12T02:13:59;15.40;99.90
52621;DHT22;38515;53.160;6.990;2022-07-12T02:16:25;15.40;99.90
52621;DHT22;38515;53.160;6.990;2022-07-12T02:18:51;15.30;99.90
52621;DHT22;38515;53.160;6.990;2022-07-12T02:21:17;15.40;99.90
52621;DHT22;38515;53.160;6.990;2022-07-12T02:23:43;15.40;99.90
52621;DHT22;38515;53.160;6.990;2022-07-12T02:26:09;15.40;99.90
52621;DHT22;38515;53.160;6.990;2022-07-12T02:28:34;15.40;99.90
52621;DHT22;38515;53.160;6.990;2022-07-12T02:31:00;15.40;99.90
52621;DHT22;38515;53.160;6.990;2022-07-12T02:33:26;15.30;99.90
52621;DHT22;38515;53.160;6.990;2022-07-12T02:35:52;15.30;99.90
52621;DHT22;38515;53.160;6.990;2022-07-12T02:38:18;15.30;99.90
52621;DHT22;38515;53.160;6.990;2022-07-12T02:40:45;15.30;99.90
52621;DHT22;38515;53.160;6.990;2022-07-12T02:43:25;15.30;99.90
52621;DHT22;38515;53.160;6.990;2022-07-12T02:45:52;15.60;99.90
52621;DHT22;38515;53.160;6.990;2022-07-12T02:48:19;15.20;99.90
52621;DHT22;38515;53.160;6.990;2022-07-12T02:50:45;15.20;99.90
52621;DHT22;38515;53.160;6.990;2022-07-12T02:53:12;15.20;99.90
52621;DHT22;38515;53.160;6.990;2022-07-12T02:55:38;15.10;99.90
52621;DHT22;38515;53.160;6.990;2022-07-12T02:58:04;15.10;99.90
52621;DHT22;38515;53.160;6.990;2022-07-12T03:00:31;15.10;99.90
52621;DHT22;38515;53.160;6.990;2022-07-12T03:02:57;15.10;99.90
52621;DHT22;38515;53.160;6.990;2022-07-12T03:05:23;15.00;99.90
52621;DHT22;38515;53.160;6.990;2022-07-12T03:07:49;14.80;99.90
52621;DHT22;38515;53.160;6.990;2022-07-12T03:10:15;15.00;99.90
52621;DHT22;38515;53.160;6.990;2022-07-12T03:12:41;14.90;99.90
52621;DHT22;38515;53.160;6.990;2022-07-12T03:15:07;14.90;99.90
52621;DHT22;38515;53.160;6.990;2022-07-12T03:17:33;14.90;99.90
52621;DHT22;38515;53.160;6.990;2022-07-12T03:19:59;14.80;99.90
52621;DHT22;38515;53.160;6.990;2022-07-12T03:22:25;14.80;99.90
52621;DHT22;38515;53.160;6.990;2022-07-12T03:24:51;14.80;99.90
52621;DHT22;38515;53.160;6.990;2022-07-12T03:27:17;14.80;99.90
52621;DHT22;38515;53.160;6.990;2022-07-12T03:29:43;14.80;99.90
52621;DHT22;38515;53.160;6.990;2022-07-12T03:32:09;14.80;99.90
52621;DHT22;38515;53.160;6.990;2022-07-12T03:34:36;14.80;99.90
52621;DHT22;38515;53.160;6.990;2022-07-12T03:37:03;14.80;99.90
52621;DHT22;38515;53.160;6.990;2022-07-12T03:39:29;14.80;99.90
52621;DHT22;38515;53.160;6.990;2022-07-12T03:41:55;14.80;99.90
52621;DHT22;38515;53.160;6.990;2022-07-12T03:44:20;14.80;99.90
52621;DHT22;38515;53.160;6.990;2022-07-12T03:46:46;14.80;99.90
52621;DHT22;38515;53.160;6.990;2022-07-12T03:49:13;14.80;99.90
52621;DHT22;38515;53.160;6.990;2022-07-12T03:51:39;14.80;99.90
52621;DHT22;38515;53.160;6.990;2022-07-12T03:54:06;14.80;99.90
52621;DHT22;38515;53.160;6.990;2022-07-12T03:56:35;14.80;99.90
52621;DHT22;38515;53.160;6.990;2022-07-12T03:59:19;14.80;99.90
52621;DHT22;38515;53.160;6.990;2022-07-12T04:01:45;14.80;99.90
52621;DHT22;38515;53.160;6.990;2022-07-12T04:04:11;14.90;99.90
52621;DHT22;38515;53.160;6.990;2022-07-12T04:06:37;14.90;99.90
52621;DHT22;38515;53.160;6.990;2022-07-12T04:09:05;14.90;99.90
52621;DHT22;38515;53.160;6.990;2022-07-12T04:11:32;15.00;99.90
52621;DHT22;38515;53.160;6.990;2022-07-12T04:13:58;15.00;99.90
52621;DHT22;38515;53.160;6.990;2022-07-12T04:16:25;15.00;99.90
52621;DHT22;38515;53.160;6.990;2022-07-12T04:18:51;15.00;99.90
52621;DHT22;38515;53.160;6.990;2022-07-12T04:21:18;15.10;99.90
52621;DHT22;38515;53.160;6.990;2022-07-12T04:23:44;15.00;99.90
52621;DHT22;38515;53.160;6.990;2022-07-12T04:26:10;15.10;99.90
52621;DHT22;38515;53.160;6.990;2022-07-12T04:28:35;15.00;99.90
52621;DHT22;38515;53.160;6.990;2022-07-12T04:31:02;15.10;99.90
52621;DHT22;38515;53.160;6.990;2022-07-12T04:33:28;15.10;99.90
52621;DHT22;38515;53.160;6.990;2022-07-12T04:35:54;15.00;99.90
52621;DHT22;38515;53.160;6.990;2022-07-12T04:38:20;15.00;99.90
52621;DHT22;38515;53.160;6.990;2022-07-12T04:40:46;15.00;99.90
52621;DHT22;38515;53.160;6.990;2022-07-12T04:43:12;15.00;99.90
52621;DHT22;38515;53.160;6.990;2022-07-12T04:45:37;15.00;99.90
52621;DHT22;38515;53.160;6.990;2022-07-12T04:48:03;15.00;99.90
52621;DHT22;38515;53.160;6.990;2022-07-12T04:50:29;15.00;99.90
52621;DHT22;38515;53.160;6.990;2022-07-12T04:52:55;15.00;99.90
52621;DHT22;38515;53.160;6.990;2022-07-12T04:55:21;15.00;99.90
52621;DHT22;38515;53.160;6.990;2022-07-12T04:57:47;15.10;99.90
52621;DHT22;38515;53.160;6.990;2022-07-12T05:00:13;15.00;99.90
52621;DHT22;38515;53.160;6.990;2022-07-12T05:02:39;15.10;99.90
52621;DHT22;38515;53.160;6.990;2022-07-12T05:05:05;15.10;99.90
52621;DHT22;38515;53.160;6.990;2022-07-12T05:07:31;15.10;99.90
52621;DHT22;38515;53.160;6.990;2022-07-12T05:09:57;15.10;99.90
52621;DHT22;38515;53.160;6.990;2022-07-12T05:12:23;15.20;99.90
52621;DHT22;38515;53.160;6.990;2022-07-12T05:14:48;15.20;99.90
52621;DHT22;38515;53.160;6.990;2022-07-12T05:17:14;15.30;99.90
52621;DHT22;38515;53.160;6.990;2022-07-12T05:19:40;15.30;99.90
52621;DHT22;38515;53.160;6.990;2022-07-12T05:22:06;15.30;99.90
52621;DHT22;38515;53.160;6.990;2022-07-12T05:24:32;15.30;99.90
52621;DHT22;38515;53.160;6.990;2022-07-12T05:26:58;15.40;99.90
52621;DHT22;38515;53.160;6.990;2022-07-12T05:29:24;15.40;99.90
52621;DHT22;38515;53.160;6.990;2022-07-12T05:31:50;15.40;99.90
52621;DHT22;38515;53.160;6.990;2022-07-12T05:34:16;15.50;99.90
52621;DHT22;38515;53.160;6.990;2022-07-12T05:36:41;15.50;99.90
52621;DHT22;38515;53.160;6.990;2022-07-12T05:39:07;15.60;99.90
52621;DHT22;38515;53.160;6.990;2022-07-12T05:41:33;15.60;99.90
52621;DHT22;38515;53.160;6.990;2022-07-12T05:43:59;15.60;99.90
52621;DHT22;38515;53.160;6.990;2022-07-12T05:46:25;15.60;99.90
52621;DHT22;38515;53.160;6.990;2022-07-12T05:48:53;15.50;99.90
52621;DHT22;38515;53.160;6.990;2022-07-12T05:51:19;15.60;99.90
52621;DHT22;38515;53.160;6.990;2022-07-12T05:54:03;15.50;99.90
52621;DHT22;38515;53.160;6.990;2022-07-12T05:56:30;15.60;99.90
52621;DHT22;38515;53.160;6.990;2022-07-12T05:58:56;15.60;99.90
52621;DHT22;38515;53.160;6.990;2022-07-12T06:01:21;15.60;99.90
52621;DHT22;38515;53.160;6.990;2022-07-12T06:03:47;15.60;99.90
52621;DHT22;38515;53.160;6.990;2022-07-12T06:06:13;15.70;99.90
52621;DHT22;38515;53.160;6.990;2022-07-12T06:08:39;15.70;99.90
52621;DHT22;38515;53.160;6.990;2022-07-12T06:11:05;15.80;99.90
52621;DHT22;38515;53.160;6.990;2022-07-12T06:13:31;15.90;99.90
52621;DHT22;38515;53.160;6.990;2022-07-12T06:15:57;16.00;99.90
52621;DHT22;38515;53.160;6.990;2022-07-12T06:18:22;16.10;99.90
52621;DHT22;38515;53.160;6.990;2022-07-12T06:20:48;16.10;99.90
52621;DHT22;38515;53.160;6.990;2022-07-12T06:23:14;16.30;99.90
52621;DHT22;38515;53.160;6.990;2022-07-12T06:25:40;16.30;99.90
52621;DHT22;38515;53.160;6.990;2022-07-12T06:28:06;16.40;99.90
52621;DHT22;38515;53.160;6.990;2022-07-12T06:30:32;16.50;99.90
52621;DHT22;38515;53.160;6.990;2022-07-12T06:32:58;16.60;99.90
52621;DHT22;38515;53.160;6.990;2022-07-12T06:35:24;16.60;99.90
52621;DHT22;38515;53.160;6.990;2022-07-12T06:37:50;16.70;99.90
52621;DHT22;38515;53.160;6.990;2022-07-12T06:40:16;16.80;99.90
52621;DHT22;38515;53.160;6.990;2022-07-12T06:42:44;16.90;99.90
52621;DHT22;38515;53.160;6.990;2022-07-12T06:45:10;16.90;99.90
52621;DHT22;38515;53.160;6.990;2022-07-12T06:47:37;17.00;99.90
52621;DHT22;38515;53.160;6.990;2022-07-12T06:50:04;17.10;99.90
52621;DHT22;38515;53.160;6.990;2022-07-12T06:52:31;17.30;99.90
52621;DHT22;38515;53.160;6.990;2022-07-12T06:54:57;17.40;99.90
52621;DHT22;38515;53.160;6.990;2022-07-12T06:57:23;17.70;99.90
52621;DHT22;38515;53.160;6.990;2022-07-12T06:59:49;17.70;99.90
52621;DHT22;38515;53.160;6.990;2022-07-12T07:02:17;17.80;99.90
52621;DHT22;38515;53.160;6.990;2022-07-12T07:04:44;17.90;99.90
52621;DHT22;38515;53.160;6.990;2022-07-12T07:07:19;17.90;99.90
52621;DHT22;38515;53.160;6.990;2022-07-12T07:10:03;18.00;99.90
52621;DHT22;38515;53.160;6.990;2022-07-12T07:12:29;18.20;99.90
52621;DHT22;38515;53.160;6.990;2022-07-12T07:14:55;18.40;99.90
52621;DHT22;38515;53.160;6.990;2022-07-12T07:17:21;18.60;99.90
52621;DHT22;38515;53.160;6.990;2022-07-12T07:19:47;18.70;99.90
52621;DHT22;38515;53.160;6.990;2022-07-12T07:22:15;18.90;99.90
52621;DHT22;38515;53.160;6.990;2022-07-12T07:24:41;19.00;99.90
52621;DHT22;38515;53.160;6.990;2022-07-12T07:27:07;19.30;99.90
52621;DHT22;38515;53.160;6.990;2022-07-12T07:29:33;19.70;99.90
52621;DHT22;38515;53.160;6.990;2022-07-12T07:32:18;20.00;99.90
52621;DHT22;38515;53.160;6.990;2022-07-12T07:34:44;20.20;99.90
52621;DHT22;38515;53.160;6.990;2022-07-12T07:37:10;20.30;99.90
52621;DHT22;38515;53.160;6.990;2022-07-12T07:39:36;20.50;99.90
52621;DHT22;38515;53.160;6.990;2022-07-12T07:42:02;20.80;99.90
52621;DHT22;38515;53.160;6.990;2022-07-12T07:44:28;20.90;99.90
52621;DHT22;38515;53.160;6.990;2022-07-12T07:46:54;21.00;99.90
52621;DHT22;38515;53.160;6.990;2022-07-12T07:49:20;21.00;99.90
52621;DHT22;38515;53.160;6.990;2022-07-12T07:51:46;21.00;99.90
52621;DHT22;38515;53.160;6.990;2022-07-12T07:54:11;20.90;99.90
52621;DHT22;38515;53.160;6.990;2022-07-12T07:56:37;21.00;99.90
52621;DHT22;38515;53.160;6.990;2022-07-12T07:59:03;21.10;99.90
52621;DHT22;38515;53.160;6.990;2022-07-12T08:01:29;21.20;99.90
52621;DHT22;38515;53.160;6.990;2022-07-12T08:04:10;21.40;99.90
52621;DHT22;38515;53.160;6.990;2022-07-12T08:06:36;21.50;99.90
52621;DHT22;38515;53.160;6.990;2022-07-12T08:09:02;21.50;99.90
52621;DHT22;38515;53.160;6.990;2022-07-12T08:11:28;21.60;99.90
52621;DHT22;38515;53.160;6.990;2022-07-12T08:13:54;21.80;99.90
52621;DHT22;38515;53.160;6.990;2022-07-12T08:16:20;21.80;99.90
52621;DHT22;38515;53.160;6.990;2022-07-12T08:18:46;21.80;99.90
52621;DHT22;38515;53.160;6.990;2022-07-12T08:21:12;21.80;99.90
52621;DHT22;38515;53.160;6.990;2022-07-12T08:23:38;22.00;99.90
52621;DHT22;38515;53.160;6.990;2022-07-12T08:26:04;22.10;99.90
52621;DHT22;38515;53.160;6.990;2022-07-12T08:28:29;22.20;99.90
52621;DHT22;38515;53.160;6.990;2022-07-12T08:30:55;22.20;99.90
52621;DHT22;38515;53.160;6.990;2022-07-12T08:33:21;22.30;99.90
52621;DHT22;38515;53.160;6.990;2022-07-12T08:35:47;22.30;99.90
52621;DHT22;38515;53.160;6.990;2022-07-12T08:38:13;22.50;99.90
52621;DHT22;38515;53.160;6.990;2022-07-12T08:40:41;22.50;99.90
52621;DHT22;38515;53.160;6.990;2022-07-12T08:43:07;22.50;99.90
52621;DHT22;38515;53.160;6.990;2022-07-12T08:45:34;22.50;99.90
52621;DHT22;38515;53.160;6.990;2022-07-12T08:47:59;22.50;99.90
52621;DHT22;38515;53.160;6.990;2022-07-12T08:50:25;22.50;99.90
52621;DHT22;38515;53.160;6.990;2022-07-12T08:52:54;22.50;99.90
52621;DHT22;38515;53.160;6.990;2022-07-12T08:55:25;22.60;99.90
52621;DHT22;38515;53.160;6.990;2022-07-12T08:57:53;22.70;99.90
52621;DHT22;38515;53.160;6.990;2022-07-12T09:00:21;22.80;99.90
52621;DHT22;38515;53.160;6.990;2022-07-12T09:02:50;22.90;99.90
52621;DHT22;38515;53.160;6.990;2022-07-12T09:05:18;22.90;99.90
52621;DHT22;38515;53.160;6.990;2022-07-12T09:07:45;23.10;99.90
52621;DHT22;38515;53.160;6.990;2022-07-12T09:10:12;23.10;99.90
52621;DHT22;38515;53.160;6.990;2022-07-12T09:12:39;23.20;99.90
52621;DHT22;38515;53.160;6.990;2022-07-12T09:15:16;23.40;99.90
52621;DHT22;38515;53.160;6.990;2022-07-12T09:17:58;23.50;99.90
52621;DHT22;38515;53.160;6.990;2022-07-12T09:20:32;23.60;99.90
52621;DHT22;38515;53.160;6.990;2022-07-12T09:23:04;23.60;99.90
52621;DHT22;38515;53.160;6.990;2022-07-12T09:25:31;23.50;99.90
52621;DHT22;38515;53.160;6.990;2022-07-12T09:27:58;23.70;99.90
52621;DHT22;38515;53.160;6.990;2022-07-12T09:30:26;23.60;99.90
52621;DHT22;38515;53.160;6.990;2022-07-12T09:32:58;23.60;99.90
52621;DHT22;38515;53.160;6.990;2022-07-12T09:35:57;23.60;99.90
52621;DHT22;38515;53.160;6.990;2022-07-12T09:38:34;23.50;99.90
52621;DHT22;38515;53.160;6.990;2022-07-12T09:41:01;23.20;99.90
52621;DHT22;38515;53.160;6.990;2022-07-12T09:43:27;23.40;99.90
52621;DHT22;38515;53.160;6.990;2022-07-12T09:45:54;23.40;99.90
52621;DHT22;38515;53.160;6.990;2022-07-12T09:48:20;23.40;99.90
52621;DHT22;38515;53.160;6.990;2022-07-12T09:50:49;23.50;99.90
52621;DHT22;38515;53.160;6.990;2022-07-12T09:55:49;23.40;99.90
52621;DHT22;38515;53.160;6.990;2022-07-12T09:58:22;23.40;99.90
52621;DHT22;38515;53.160;6.990;2022-07-12T10:00:51;23.50;99.90
52621;DHT22;38515;53.160;6.990;2022-07-12T10:03:21;23.60;99.90
52621;DHT22;38515;53.160;6.990;2022-07-12T10:05:50;23.70;99.90
52621;DHT22;38515;53.160;6.990;2022-07-12T10:08:16;23.80;99.90
52621;DHT22;38515;53.160;6.990;2022-07-12T10:10:43;23.90;99.90
52621;DHT22;38515;53.160;6.990;2022-07-12T10:13:09;23.90;99.90
52621;DHT22;38515;53.160;6.990;2022-07-12T10:15:35;23.90;99.90
52621;DHT22;38515;53.160;6.990;2022-07-12T10:18:02;24.00;99.90
52621;DHT22;38515;53.160;6.990;2022-07-12T10:20:31;24.00;99.90
52621;DHT22;38515;53.160;6.990;2022-07-12T10:25:42;24.20;99.90
52621;DHT22;38515;53.160;6.990;2022-07-12T10:28:08;24.30;99.90
52621;DHT22;38515;53.160;6.990;2022-07-12T10:30:44;24.40;99.90
52621;DHT22;38515;53.160;6.990;2022-07-12T10:33:16;24.40;99.90
52621;DHT22;38515;53.160;6.990;2022-07-12T10:36:04;24.40;99.90
52621;DHT22;38515;53.160;6.990;2022-07-12T10:38:32;24.30;99.90
52621;DHT22;38515;53.160;6.990;2022-07-12T10:41:17;24.20;99.90
52621;DHT22;38515;53.160;6.990;2022-07-12T10:43:45;24.20;99.90
52621;DHT22;38515;53.160;6.990;2022-07-12T10:46:29;24.20;99.90
52621;DHT22;38515;53.160;6.990;2022-07-12T10:49:32;24.30;99.90
52621;DHT22;38515;53.160;6.990;2022-07-12T10:54:37;24.40;99.90
52621;DHT22;38515;53.160;6.990;2022-07-12T10:57:04;24.50;99.90
52621;DHT22;38515;53.160;6.990;2022-07-12T10:59:34;24.60;99.90
52621;DHT22;38515;53.160;6.990;2022-07-12T11:02:00;24.60;99.90
52621;DHT22;38515;53.160;6.990;2022-07-12T11:04:26;24.60;99.90
52621;DHT22;38515;53.160;6.990;2022-07-12T11:06:54;24.70;99.90
52621;DHT22;38515;53.160;6.990;2022-07-12T11:09:23;24.70;99.90
52621;DHT22;38515;53.160;6.990;2022-07-12T11:11:51;24.60;99.90
52621;DHT22;38515;53.160;6.990;2022-07-12T11:14:21;24.70;99.90
52621;DHT22;38515;53.160;6.990;2022-07-12T11:16:49;24.80;99.90
52621;DHT22;38515;53.160;6.990;2022-07-12T11:19:22;24.80;99.90
52621;DHT22;38515;53.160;6.990;2022-07-12T11:21:49;24.80;99.90
52621;DHT22;38515;53.160;6.990;2022-07-12T11:24:23;24.90;99.90
52621;DHT22;38515;53.160;6.990;2022-07-12T11:26:50;25.00;99.90
52621;DHT22;38515;53.160;6.990;2022-07-12T11:29:17;25.00;99.90
52621;DHT22;38515;53.160;6.990;2022-07-12T11:31:43;25.10;99.90
52621;DHT22;38515;53.160;6.990;2022-07-12T11:34:22;25.10;99.90
52621;DHT22;38515;53.160;6.990;2022-07-12T11:36:55;25.10;99.90
52621;DHT22;38515;53.160;6.990;2022-07-12T11:39:35;25.10;99.90
52621;DHT22;38515;53.160;6.990;2022-07-12T11:42:03;25.20;99.90
52621;DHT22;38515;53.160;6.990;2022-07-12T11:47:13;25.30;99.90
52621;DHT22;38515;53.160;6.990;2022-07-12T11:49:44;25.30;99.90
52621;DHT22;38515;53.160;6.990;2022-07-12T11:52:14;25.30;99.90
52621;DHT22;38515;53.160;6.990;2022-07-12T11:54:40;25.30;99.90
52621;DHT22;38515;53.160;6.990;2022-07-12T11:57:07;25.30;99.90
52621;DHT22;38515;53.160;6.990;2022-07-12T11:59:33;25.30;99.90
52621;DHT22;38515;53.160;6.990;2022-07-12T12:02:07;25.40;99.90
52621;DHT22;38515;53.160;6.990;2022-07-12T12:04:45;25.40;99.90
52621;DHT22;38515;53.160;6.990;2022-07-12T12:07:12;25.40;99.90
52621;DHT22;38515;53.160;6.990;2022-07-12T12:12:37;25.40;99.90
52621;DHT22;38515;53.160;6.990;2022-07-12T12:15:06;25.50;99.90
52621;DHT22;38515;53.160;6.990;2022-07-12T12:17:34;25.40;99.90
52621;DHT22;38515;53.160;6.990;2022-07-12T12:20:11;25.50;99.90
52621;DHT22;38515;53.160;6.990;2022-07-12T12:22:38;25.50;99.90
52621;DHT22;38515;53.160;6.990;2022-07-12T12:25:05;25.50;99.90
52621;DHT22;38515;53.160;6.990;2022-07-12T12:27:32;25.50;99.90
52621;DHT22;38515;53.160;6.990;2022-07-12T12:30:04;25.50;99.90
52621;DHT22;38515;53.160;6.990;2022-07-12T12:32:43;25.50;99.90
52621;DHT22;38515;53.160;6.990;2022-07-12T12:35:10;25.50;99.90
52621;DHT22;38515;53.160;6.990;2022-07-12T12:37:36;25.70;99.90
52621;DHT22;38515;53.160;6.990;2022-07-12T12:40:03;25.90;99.90
52621;DHT22;38515;53.160;6.990;2022-07-12T12:42:30;26.10;99.90
52621;DHT22;38515;53.160;6.990;2022-07-12T12:44:56;26.10;99.90
52621;DHT22;38515;53.160;6.990;2022-07-12T12:47:21;26.10;99.90
52621;DHT22;38515;53.160;6.990;2022-07-12T12:49:57;26.10;99.90
52621;DHT22;38515;53.160;6.990;2022-07-12T12:52:24;26.00;99.90
52621;DHT22;38515;53.160;6.990;2022-07-12T12:54:50;26.00;99.90
52621;DHT22;38515;53.160;6.990;2022-07-12T12:57:16;26.00;99.90
52621;DHT22;38515;53.160;6.990;2022-07-12T12:59:42;26.00;99.90
52621;DHT22;38515;53.160;6.990;2022-07-12T13:02:08;25.90;99.90
52621;DHT22;38515;53.160;6.990;2022-07-12T13:04:37;25.90;99.90
52621;DHT22;38515;53.160;6.990;2022-07-12T13:07:03;25.90;99.90
52621;DHT22;38515;53.160;6.990;2022-07-12T13:09:31;25.80;99.90
52621;DHT22;38515;53.160;6.990;2022-07-12T13:11:58;25.90;99.90
52621;DHT22;38515;53.160;6.990;2022-07-12T13:14:25;25.80;99.90
52621;DHT22;38515;53.160;6.990;2022-07-12T13:16:51;25.70;99.90
52621;DHT22;38515;53.160;6.990;2022-07-12T13:19:18;25.70;99.90
52621;DHT22;38515;53.160;6.990;2022-07-12T13:21:45;25.70;99.90
52621;DHT22;38515;53.160;6.990;2022-07-12T13:24:11;25.60;99.90
52621;DHT22;38515;53.160;6.990;2022-07-12T13:26:37;25.60;99.90
52621;DHT22;38515;53.160;6.990;2022-07-12T13:29:03;25.60;99.90
52621;DHT22;38515;53.160;6.990;2022-07-12T13:31:29;25.60;99.90
52621;DHT22;38515;53.160;6.990;2022-07-12T13:33:55;25.70;99.90
52621;DHT22;38515;53.160;6.990;2022-07-12T13:36:21;25.80;99.90
52621;DHT22;38515;53.160;6.990;2022-07-12T13:38:48;25.80;99.90
52621;DHT22;38515;53.160;6.990;2022-07-12T13:41:14;25.80;99.90
52621;DHT22;38515;53.160;6.990;2022-07-12T13:43:40;25.70;99.90
52621;DHT22;38515;53.160;6.990;2022-07-12T13:46:06;25.60;99.90
52621;DHT22;38515;53.160;6.990;2022-07-12T13:48:32;25.70;99.90
52621;DHT22;38515;53.160;6.990;2022-07-12T13:50:59;25.70;99.90
52621;DHT22;38515;53.160;6.990;2022-07-12T13:53:25;25.70;99.90
52621;DHT22;38515;53.160;6.990;2022-07-12T13:55:51;25.70;99.90
52621;DHT22;38515;53.160;6.990;2022-07-12T13:58:16;25.70;99.90
52621;DHT22;38515;53.160;6.990;2022-07-12T14:00:42;25.70;99.90
52621;DHT22;38515;53.160;6.990;2022-07-12T14:03:08;25.70;99.90
52621;DHT22;38515;53.160;6.990;2022-07-12T14:05:35;25.70;99.90
52621;DHT22;38515;53.160;6.990;2022-07-12T14:08:03;25.80;99.90
52621;DHT22;38515;53.160;6.990;2022-07-12T14:10:29;25.80;99.80
52621;DHT22;38515;53.160;6.990;2022-07-12T14:12:55;25.70;99.80
52621;DHT22;38515;53.160;6.990;2022-07-12T14:15:20;25.80;99.70
52621;DHT22;38515;53.160;6.990;2022-07-12T14:18:05;25.80;99.70
52621;DHT22;38515;53.160;6.990;2022-07-12T14:20:32;25.70;99.20
52621;DHT22;38515;53.160;6.990;2022-07-12T14:22:59;25.70;99.30
52621;DHT22;38515;53.160;6.990;2022-07-12T14:25:25;25.70;99.10
52621;DHT22;38515;53.160;6.990;2022-07-12T14:27:51;25.70;99.10
52621;DHT22;38515;53.160;6.990;2022-07-12T14:30:17;25.70;98.80
52621;DHT22;38515;53.160;6.990;2022-07-12T14:32:42;25.70;99.60
52621;DHT22;38515;53.160;6.990;2022-07-12T14:35:09;25.60;99.80
52621;DHT22;38515;53.160;6.990;2022-07-12T14:37:36;25.60;99.90
52621;DHT22;38515;53.160;6.990;2022-07-12T14:40:04;25.60;99.90
52621;DHT22;38515;53.160;6.990;2022-07-12T14:42:30;25.60;99.90
52621;DHT22;38515;53.160;6.990;2022-07-12T14:44:57;25.60;99.90
52621;DHT22;38515;53.160;6.990;2022-07-12T14:47:23;25.50;99.90
52621;DHT22;38515;53.160;6.990;2022-07-12T14:49:49;25.60;99.90
52621;DHT22;38515;53.160;6.990;2022-07-12T14:52:15;25.60;99.90
52621;DHT22;38515;53.160;6.990;2022-07-12T14:54:42;25.60;99.90
52621;DHT22;38515;53.160;6.990;2022-07-12T14:57:08;25.60;99.90
52621;DHT22;38515;53.160;6.990;2022-07-12T14:59:34;25.60;99.90
52621;DHT22;38515;53.160;6.990;2022-07-12T15:02:00;25.70;99.90
52621;DHT22;38515;53.160;6.990;2022-07-12T15:04:27;25.70;99.90
52621;DHT22;38515;53.160;6.990;2022-07-12T15:06:52;25.70;99.90
52621;DHT22;38515;53.160;6.990;2022-07-12T15:09:18;25.70;99.90
52621;DHT22;38515;53.160;6.990;2022-07-12T15:11:44;25.70;99.90
52621;DHT22;38515;53.160;6.990;2022-07-12T15:14:10;25.70;99.90
52621;DHT22;38515;53.160;6.990;2022-07-12T15:16:36;25.70;99.90
52621;DHT22;38515;53.160;6.990;2022-07-12T15:19:02;25.60;99.90
52621;DHT22;38515;53.160;6.990;2022-07-12T15:21:27;25.60;99.90
52621;DHT22;38515;53.160;6.990;2022-07-12T15:23:53;25.60;99.90
52621;DHT22;38515;53.160;6.990;2022-07-12T15:26:19;25.50;99.90
52621;DHT22;38515;53.160;6.990;2022-07-12T15:28:52;25.40;99.90
52621;DHT22;38515;53.160;6.990;2022-07-12T15:31:19;25.40;99.90
52621;DHT22;38515;53.160;6.990;2022-07-12T15:33:45;25.30;99.90
52621;DHT22;38515;53.160;6.990;2022-07-12T15:36:11;25.30;99.90
52621;DHT22;38515;53.160;6.990;2022-07-12T15:38:37;25.30;99.90
52621;DHT22;38515;53.160;6.990;2022-07-12T15:41:03;25.20;99.90
52621;DHT22;38515;53.160;6.990;2022-07-12T15:43:28;25.30;99.90
52621;DHT22;38515;53.160;6.990;2022-07-12T15:45:54;25.40;99.90
52621;DHT22;38515;53.160;6.990;2022-07-12T15:48:20;25.40;99.90